Time;durP1;ratioP1;P1;durP2;ratioP2;P2;SDS_P1;SDS_P2;PMS_P1;PMS_P2;Temp;Humidity;BMP_temperature;BMP_pressure;BME280_temperature;BME280_humidity;BME280_pressure;Samples;Min_cycle;Max_cycle;Signal;HPM_P1;HPM_P2
2022/11/21 00:01:59;;;;;;;69.05;50.38;;;14.40;72.80;;;;;;4975160;28;89385;-52
2022/11/21 00:04:25;;;;;;;69.50;50.95;;;14.50;72.90;;;;;;4986014;27;91198;-50
2022/11/21 00:06:51;;;;;;;69.40;50.22;;;14.40;72.70;;;;;;4987932;27;92950;-48
2022/11/21 00:09:17;;;;;;;69.35;50.33;;;14.40;72.70;;;;;;4983638;28;89748;-48
2022/11/21 00:11:43;;;;;;;68.90;50.35;;;14.40;72.80;;;;;;4982457;28;90329;-52
2022/11/21 00:14:08;;;;;;;69.57;49.92;;;14.40;72.80;;;;;;4993050;27;89756;-47
2022/11/21 00:16:34;;;;;;;68.38;50.08;;;14.40;72.70;;;;;;4987675;28;90193;-51
2022/11/21 00:18:59;;;;;;;69.10;51.13;;;14.40;72.80;;;;;;4983169;28;89720;-51
2022/11/21 00:21:25;;;;;;;69.07;50.40;;;14.40;72.70;;;;;;4975568;28;94971;-52
2022/11/21 00:23:51;;;;;;;69.45;50.35;;;14.40;72.80;;;;;;4987614;28;90037;-49
2022/11/21 00:26:17;;;;;;;68.82;50.05;;;14.40;72.80;;;;;;4984808;28;91738;-47
2022/11/21 00:28:44;;;;;;;69.05;50.03;;;14.40;72.80;;;;;;4979905;28;89933;-53
2022/11/21 00:31:18;;;;;;;68.85;51.40;;;14.30;72.70;;;;;;4983571;28;90300;-49
2022/11/21 00:33:44;;;;;;;67.15;49.95;;;14.30;72.80;;;;;;4988107;28;93051;-50
2022/11/21 00:36:10;;;;;;;68.13;50.03;;;14.30;73.00;;;;;;4983266;28;89703;-49
2022/11/21 00:38:36;;;;;;;68.63;50.50;;;14.30;72.70;;;;;;4983254;28;91308;-49
2022/11/21 00:41:02;;;;;;;67.97;50.20;;;14.30;72.80;;;;;;4983784;28;90619;-50
2022/11/21 00:43:27;;;;;;;66.95;49.72;;;14.30;73.00;;;;;;4994940;28;91025;-48
2022/11/21 00:45:53;;;;;;;69.32;49.80;;;14.30;72.80;;;;;;4984715;28;90806;-51
2022/11/21 00:48:19;;;;;;;70.70;50.38;;;14.20;72.90;;;;;;4983996;28;89806;-51
2022/11/21 00:50:47;;;;;;;67.85;49.78;;;14.30;72.90;;;;;;4992386;28;89541;-51
2022/11/21 00:53:13;;;;;;;69.40;49.85;;;14.30;72.90;;;;;;4972988;28;90406;-51
2022/11/21 00:55:39;;;;;;;68.18;49.97;;;14.20;72.80;;;;;;4990376;28;89800;-50
2022/11/21 00:58:04;;;;;;;68.13;50.30;;;14.30;72.70;;;;;;4980336;28;89414;-51
2022/11/21 01:00:30;;;;;;;67.00;49.80;;;14.20;72.70;;;;;;4990582;28;90994;-51
2022/11/21 01:02:55;;;;;;;68.97;50.15;;;14.20;72.80;;;;;;4980801;28;88736;-48
2022/11/21 01:05:21;;;;;;;68.90;49.92;;;14.20;72.90;;;;;;4985628;28;89559;-49
2022/11/21 01:07:48;;;;;;;68.47;49.58;;;14.20;72.90;;;;;;4987186;28;90342;-52
2022/11/21 01:10:13;;;;;;;69.18;50.50;;;14.20;72.90;;;;;;4990769;28;90933;-50
2022/11/21 01:12:39;;;;;;;68.43;49.92;;;14.20;72.60;;;;;;4983321;27;90648;-47
2022/11/21 01:15:05;;;;;;;67.88;50.22;;;14.20;72.80;;;;;;4987962;28;92096;-48
2022/11/21 01:17:32;;;;;;;67.63;49.95;;;14.20;72.80;;;;;;4987617;28;89395;-49
2022/11/21 01:19:58;;;;;;;67.90;49.80;;;14.20;72.60;;;;;;4988106;28;89803;-51
2022/11/21 01:22:23;;;;;;;67.65;49.80;;;14.20;72.70;;;;;;4975087;28;90857;-47
2022/11/21 01:24:49;;;;;;;67.35;49.63;;;14.20;72.50;;;;;;4988355;28;89284;-52
2022/11/21 01:27:15;;;;;;;67.70;50.05;;;14.20;72.50;;;;;;4984918;28;89458;-51
2022/11/21 01:29:40;;;;;;;67.97;49.92;;;14.20;72.60;;;;;;4984029;28;90112;-51
2022/11/21 01:32:06;;;;;;;66.63;49.58;;;14.10;72.50;;;;;;4985169;28;89727;-50
2022/11/21 01:34:31;;;;;;;69.40;49.88;;;14.10;72.60;;;;;;4983932;28;91989;-48
2022/11/21 01:36:57;;;;;;;68.05;49.42;;;14.10;72.80;;;;;;4988363;28;89586;-52
2022/11/21 01:39:23;;;;;;;67.40;49.60;;;14.10;72.70;;;;;;4966971;28;92087;-51
2022/11/21 01:41:48;;;;;;;67.07;49.42;;;14.10;72.30;;;;;;4980677;28;92296;-50
2022/11/21 01:44:23;;;;;;;66.40;49.42;;;14.10;72.60;;;;;;4987931;28;89737;-49
2022/11/21 01:46:50;;;;;;;66.32;49.53;;;14.10;72.90;;;;;;4982410;28;91107;-49
2022/11/21 01:49:21;;;;;;;67.15;49.97;;;14.10;72.80;;;;;;4986081;28;90112;-52
2022/11/21 01:51:57;;;;;;;65.70;48.97;;;14.00;72.80;;;;;;4995663;28;88739;-48
2022/11/21 01:54:29;;;;;;;67.22;49.47;;;14.00;73.00;;;;;;4990161;28;89460;-52
2022/11/21 01:57:24;;;;;;;;;;;14.00;72.70;;;;;;4983478;28;90378;-48
2022/11/21 02:00:01;;;;;;;66.97;49.55;;;14.00;72.70;;;;;;4988999;28;91268;-51
2022/11/21 02:02:31;;;;;;;67.07;49.28;;;14.10;72.80;;;;;;4980455;27;90908;-50
2022/11/21 02:04:59;;;;;;;68.50;49.63;;;14.00;72.80;;;;;;4982298;28;91227;-51
2022/11/21 02:07:27;;;;;;;66.18;49.13;;;14.00;72.80;;;;;;4981415;28;90169;-52
2022/11/21 02:09:57;;;;;;;67.97;49.55;;;14.00;72.80;;;;;;4994140;28;89537;-51
2022/11/21 02:12:28;;;;;;;67.55;49.65;;;13.90;72.80;;;;;;4994656;27;89932;-48
2022/11/21 02:14:55;;;;;;;67.03;49.47;;;14.00;72.90;;;;;;4987322;28;90850;-51
2022/11/21 02:17:21;;;;;;;68.85;49.65;;;14.00;72.70;;;;;;4985559;27;88671;-52
2022/11/21 02:20:07;;;;;;;65.93;48.80;;;14.00;72.90;;;;;;4985913;28;92253;-51
2022/11/21 02:22:53;;;;;;;66.53;49.60;;;13.90;72.70;;;;;;4984454;28;93528;-49
2022/11/21 02:25:26;;;;;;;65.82;49.13;;;14.00;73.00;;;;;;4987615;28;91827;-54
2022/11/21 02:27:57;;;;;;;70.55;49.80;;;14.00;72.60;;;;;;4982089;28;89521;-51
2022/11/21 02:30:23;;;;;;;67.55;49.38;;;13.90;72.70;;;;;;4983197;28;91094;-49
2022/11/21 02:32:49;;;;;;;66.07;49.45;;;13.90;72.60;;;;;;4980777;28;91355;-52
2022/11/21 02:35:17;;;;;;;66.65;49.25;;;13.90;72.70;;;;;;4983945;28;95176;-47
2022/11/21 02:37:45;;;;;;;65.55;48.88;;;13.90;72.80;;;;;;4976040;28;89628;-51
2022/11/21 02:40:19;;;;;;;67.30;49.40;;;13.90;72.50;;;;;;4985719;28;90016;-57
2022/11/21 02:42:53;;;;;;;68.43;49.58;;;13.90;72.80;;;;;;4987879;28;89111;-52
2022/11/21 02:45:28;;;;;;;65.43;48.92;;;13.90;72.80;;;;;;4984695;28;89836;-52
2022/11/21 02:47:55;;;;;;;66.43;49.33;;;13.90;72.90;;;;;;4998432;28;90381;-51
2022/11/21 02:50:29;;;;;;;65.85;49.15;;;13.90;72.70;;;;;;4988061;28;91096;-51
2022/11/21 02:52:56;;;;;;;67.65;49.28;;;13.90;72.80;;;;;;4981625;28;90000;-48
2022/11/21 02:55:23;;;;;;;66.10;49.58;;;13.90;72.70;;;;;;4982915;28;90264;-51
2022/11/21 02:57:48;;;;;;;65.68;49.28;;;13.80;72.50;;;;;;4988376;28;90233;-48
2022/11/21 03:00:14;;;;;;;67.60;49.35;;;13.90;72.80;;;;;;4971144;28;89797;-50
2022/11/21 03:02:40;;;;;;;67.28;49.70;;;13.90;72.80;;;;;;4978462;28;90996;-49
2022/11/21 03:05:08;;;;;;;66.93;49.35;;;13.80;72.90;;;;;;4989843;28;90480;-48
2022/11/21 03:07:34;;;;;;;67.03;49.28;;;13.80;72.70;;;;;;4983903;28;90803;-49
2022/11/21 03:09:59;;;;;;;65.90;49.33;;;13.80;72.80;;;;;;4978283;28;90058;-51
2022/11/21 03:12:25;;;;;;;66.63;49.63;;;13.80;72.80;;;;;;4977594;28;90783;-48
2022/11/21 03:14:51;;;;;;;65.78;49.05;;;13.80;72.70;;;;;;4978493;28;91312;-52
2022/11/21 03:17:17;;;;;;;67.28;49.33;;;13.80;72.80;;;;;;4990674;28;89527;-52
2022/11/21 03:19:42;;;;;;;66.70;49.63;;;13.80;72.80;;;;;;4978038;28;91068;-50
2022/11/21 03:22:08;;;;;;;65.95;49.13;;;13.80;72.80;;;;;;4975186;28;89825;-50
2022/11/21 03:24:34;;;;;;;65.82;49.38;;;13.80;72.80;;;;;;4980798;28;89708;-50
2022/11/21 03:27:00;;;;;;;68.18;49.58;;;13.80;72.70;;;;;;4980180;28;91845;-47
2022/11/21 03:29:25;;;;;;;66.40;49.05;;;13.80;72.70;;;;;;4981037;28;89398;-50
2022/11/21 03:31:51;;;;;;;66.30;49.13;;;13.80;72.70;;;;;;4980597;28;89545;-52
2022/11/21 03:34:17;;;;;;;66.82;49.70;;;13.80;72.70;;;;;;4975090;28;91426;-50
2022/11/21 03:36:42;;;;;;;66.55;48.85;;;13.80;72.90;;;;;;4977618;28;90617;-50
2022/11/21 03:39:09;;;;;;;66.53;50.10;;;13.80;72.90;;;;;;4972744;28;91408;-52
2022/11/21 03:41:34;;;;;;;65.63;49.20;;;13.80;72.70;;;;;;4984387;27;92932;-49
2022/11/21 03:44:09;;;;;;;66.95;49.60;;;13.80;72.80;;;;;;4989194;28;89813;-49
2022/11/21 03:46:37;;;;;;;66.47;49.13;;;13.80;72.80;;;;;;4986755;28;90044;-51
2022/11/21 03:49:03;;;;;;;66.43;49.55;;;13.70;72.80;;;;;;4978369;28;90550;-48
2022/11/21 03:51:29;;;;;;;66.70;49.30;;;13.70;72.80;;;;;;4981732;28;94372;-50
2022/11/21 03:53:55;;;;;;;67.30;48.90;;;13.70;72.80;;;;;;4988372;28;90048;-49
2022/11/21 03:56:21;;;;;;;66.55;49.58;;;13.80;72.70;;;;;;4973927;28;90476;-50
2022/11/21 03:58:47;;;;;;;65.68;49.22;;;13.70;72.80;;;;;;4989138;28;91036;-49
2022/11/21 04:01:13;;;;;;;66.32;48.90;;;13.70;72.90;;;;;;4993078;28;89803;-48
2022/11/21 04:03:40;;;;;;;66.30;49.55;;;13.70;72.80;;;;;;4978776;28;90857;-53
2022/11/21 04:06:06;;;;;;;65.72;48.83;;;13.70;72.80;;;;;;4992015;28;89819;-53
2022/11/21 04:08:31;;;;;;;66.00;48.95;;;13.70;72.80;;;;;;4982250;28;90013;-50
2022/11/21 04:10:57;;;;;;;67.03;49.15;;;13.70;73.10;;;;;;4987900;28;89839;-51
2022/11/21 04:13:23;;;;;;;67.05;49.60;;;13.70;72.80;;;;;;4983756;28;90944;-49
2022/11/21 04:15:49;;;;;;;66.85;49.17;;;13.70;72.90;;;;;;4978715;28;90344;-52
2022/11/21 04:18:15;;;;;;;66.32;49.90;;;13.70;72.90;;;;;;4978770;28;89834;-54
2022/11/21 04:20:41;;;;;;;66.10;49.28;;;13.70;72.80;;;;;;4986175;28;90297;-53
2022/11/21 04:23:07;;;;;;;65.63;49.33;;;13.70;72.90;;;;;;4978522;28;90790;-49
2022/11/21 04:25:32;;;;;;;65.90;49.13;;;13.70;72.70;;;;;;4984133;28;89917;-51
2022/11/21 04:27:59;;;;;;;66.80;49.08;;;13.70;72.80;;;;;;4993715;28;92219;-50
2022/11/21 04:30:25;;;;;;;64.93;48.33;;;13.70;72.80;;;;;;4984594;28;90808;-51
2022/11/21 04:32:52;;;;;;;65.80;49.00;;;13.60;72.60;;;;;;4978448;27;91769;-53
2022/11/21 04:35:18;;;;;;;66.07;50.08;;;13.60;72.70;;;;;;4980591;28;89922;-49
2022/11/21 04:37:44;;;;;;;66.78;49.33;;;13.60;72.60;;;;;;4989913;28;91613;-52
2022/11/21 04:40:11;;;;;;;66.32;48.97;;;13.70;72.70;;;;;;4987978;28;92963;-52
2022/11/21 04:42:39;;;;;;;65.65;49.17;;;13.60;72.70;;;;;;4990221;28;89651;-52
2022/11/21 04:45:06;;;;;;;66.68;49.50;;;13.60;72.80;;;;;;4985065;28;92111;-52
2022/11/21 04:47:31;;;;;;;65.43;49.17;;;13.60;72.80;;;;;;4985558;28;90427;-52
2022/11/21 04:49:57;;;;;;;65.28;49.00;;;13.60;72.70;;;;;;4985532;27;90099;-51
2022/11/21 04:52:23;;;;;;;65.70;49.10;;;13.60;72.70;;;;;;4990200;28;93811;-48
2022/11/21 04:54:48;;;;;;;66.00;48.95;;;13.60;72.60;;;;;;4988050;28;89708;-51
2022/11/21 04:57:14;;;;;;;65.53;48.95;;;13.60;72.80;;;;;;4988476;28;89547;-50
2022/11/21 04:59:40;;;;;;;65.38;48.80;;;13.50;72.70;;;;;;4993225;28;89907;-50
2022/11/21 05:02:05;;;;;;;65.72;49.08;;;13.60;72.60;;;;;;4987548;28;89962;-52
2022/11/21 05:04:31;;;;;;;64.57;48.80;;;13.60;72.60;;;;;;4987213;28;89855;-50
2022/11/21 05:06:57;;;;;;;66.03;48.65;;;13.50;72.70;;;;;;4989225;28;89895;-51
2022/11/21 05:09:22;;;;;;;65.32;48.75;;;13.50;72.60;;;;;;4991652;28;91408;-54
2022/11/21 05:14:32;;;;;;;65.28;48.88;;;13.50;72.70;;;;;;4977124;28;89310;-49
2022/11/21 05:16:58;;;;;;;65.55;49.60;;;13.50;72.70;;;;;;4989850;27;91587;-50
2022/11/21 05:19:24;;;;;;;65.55;49.25;;;13.50;72.60;;;;;;4979300;28;90423;-48
2022/11/21 05:21:49;;;;;;;68.18;48.58;;;13.50;72.70;;;;;;4977699;28;90051;-50
2022/11/21 05:24:15;;;;;;;66.07;49.10;;;13.50;72.70;;;;;;4977033;28;90013;-49
2022/11/21 05:26:41;;;;;;;64.35;48.50;;;13.50;72.70;;;;;;4990340;28;89579;-48
2022/11/21 05:29:06;;;;;;;66.63;48.83;;;13.50;72.70;;;;;;4982374;28;92819;-51
2022/11/21 05:31:32;;;;;;;66.10;49.17;;;13.50;72.50;;;;;;4978081;28;89425;-53
2022/11/21 05:33:58;;;;;;;65.93;49.53;;;13.50;72.50;;;;;;4979179;28;89569;-52
2022/11/21 05:36:23;;;;;;;64.18;48.50;;;13.40;72.50;;;;;;4987998;28;90999;-51
2022/11/21 05:38:49;;;;;;;65.82;49.10;;;13.40;72.80;;;;;;4977235;28;90041;-53
2022/11/21 05:41:15;;;;;;;65.05;49.00;;;13.40;72.60;;;;;;4980272;28;93647;-49
2022/11/21 05:43:46;;;;;;;65.38;49.17;;;13.40;72.70;;;;;;4990400;28;89527;-50
2022/11/21 05:46:14;;;;;;;65.60;48.80;;;13.40;72.60;;;;;;4982808;28;90581;-48
2022/11/21 05:48:40;;;;;;;65.22;48.60;;;13.40;72.50;;;;;;4984107;28;91112;-52
2022/11/21 05:51:06;;;;;;;67.25;49.15;;;13.40;72.60;;;;;;4985038;28;89644;-47
2022/11/21 05:53:33;;;;;;;66.10;49.10;;;13.30;72.70;;;;;;4994118;27;91243;-50
2022/11/21 05:56:05;;;;;;;64.93;49.00;;;13.30;72.70;;;;;;4984893;28;90422;-52
2022/11/21 05:58:31;;;;;;;64.70;48.90;;;13.30;72.70;;;;;;4984504;28;88916;-48
2022/11/21 06:00:58;;;;;;;65.68;48.78;;;13.30;72.50;;;;;;4977259;28;93349;-53
2022/11/21 06:03:29;;;;;;;65.47;49.03;;;13.30;72.60;;;;;;4984908;28;92150;-52
2022/11/21 06:05:59;;;;;;;65.57;49.17;;;13.30;72.60;;;;;;4984949;28;90405;-51
2022/11/21 06:08:26;;;;;;;64.43;48.67;;;13.30;72.80;;;;;;4982373;28;90951;-48
2022/11/21 06:10:52;;;;;;;66.00;49.67;;;13.30;72.50;;;;;;4980810;28;89863;-48
2022/11/21 06:13:21;;;;;;;66.22;49.05;;;13.30;72.50;;;;;;4983304;28;90614;-50
2022/11/21 06:15:52;;;;;;;66.72;48.80;;;13.30;72.60;;;;;;4977711;28;89503;-51
2022/11/21 06:18:18;;;;;;;64.72;48.78;;;13.30;72.50;;;;;;4984134;28;90093;-52
2022/11/21 06:20:44;;;;;;;64.85;48.90;;;13.30;72.60;;;;;;4989456;27;89605;-48
2022/11/21 06:23:10;;;;;;;66.38;49.08;;;13.30;72.50;;;;;;4982062;28;91551;-48
2022/11/21 06:25:36;;;;;;;65.88;49.17;;;13.30;72.50;;;;;;4971211;28;89739;-50
2022/11/21 06:28:02;;;;;;;66.72;49.17;;;13.30;72.20;;;;;;4978824;28;90683;-50
2022/11/21 06:30:28;;;;;;;65.50;48.80;;;13.30;72.60;;;;;;4982238;28;92209;-50
2022/11/21 06:32:53;;;;;;;65.75;49.55;;;13.30;72.60;;;;;;4981561;28;91042;-51
2022/11/21 06:35:19;;;;;;;64.50;49.22;;;13.20;72.50;;;;;;4978367;27;89481;-48
2022/11/21 06:37:44;;;;;;;64.85;49.22;;;13.20;72.50;;;;;;4981303;28;90954;-49
2022/11/21 06:40:11;;;;;;;64.70;49.20;;;13.30;72.60;;;;;;4982233;28;89680;-52
2022/11/21 06:42:37;;;;;;;64.60;48.58;;;13.30;72.70;;;;;;4988140;28;90004;-52
2022/11/21 06:45:03;;;;;;;67.18;49.20;;;13.20;72.40;;;;;;4981574;28;91881;-51
2022/11/21 06:47:33;;;;;;;66.10;50.20;;;13.30;72.50;;;;;;4975233;28;90608;-51
2022/11/21 06:49:59;;;;;;;64.60;48.67;;;13.20;72.50;;;;;;4978966;28;89952;-52
2022/11/21 06:52:25;;;;;;;72.45;49.35;;;13.30;72.90;;;;;;4989887;28;89918;-52
2022/11/21 06:54:51;;;;;;;70.60;50.10;;;13.30;72.90;;;;;;4989490;28;92465;-50
2022/11/21 06:57:17;;;;;;;67.05;50.15;;;13.30;73.30;;;;;;4983817;27;91076;-47
2022/11/21 06:59:42;;;;;;;68.13;49.63;;;13.30;73.50;;;;;;4993219;28;89435;-48
2022/11/21 07:02:14;;;;;;;70.22;50.10;;;13.40;73.60;;;;;;4980575;28;89911;-53
2022/11/21 07:04:40;;;;;;;67.70;49.53;;;13.40;73.40;;;;;;4973324;28;89977;-51
2022/11/21 07:07:06;;;;;;;72.55;50.20;;;13.50;73.30;;;;;;4975087;28;89551;-53
2022/11/21 07:09:34;;;;;;;71.32;50.53;;;13.50;73.80;;;;;;4986939;28;90473;-50
2022/11/21 07:13:20;;;;;;;69.18;49.95;;;13.70;74.10;;;;;;4974923;28;89598;-48
2022/11/21 07:14:46;;;;;;;69.97;50.03;;;13.70;73.50;;;;;;4979210;28;89713;-53
2022/11/21 07:17:13;;;;;;;70.10;49.63;;;13.70;73.40;;;;;;4981858;28;89753;-53
2022/11/21 07:19:39;;;;;;;71.95;49.72;;;13.80;73.10;;;;;;4983205;28;95928;-51
2022/11/21 07:22:05;;;;;;;68.15;49.75;;;13.80;72.90;;;;;;4988888;28;89646;-50
2022/11/21 07:24:31;;;;;;;69.47;49.72;;;13.80;72.60;;;;;;4976809;28;92173;-50
2022/11/21 07:26:56;;;;;;;71.45;50.13;;;13.80;72.70;;;;;;4984501;28;90378;-54
2022/11/21 07:29:22;;;;;;;70.55;50.80;;;13.80;72.60;;;;;;4988313;27;89920;-52
2022/11/21 07:31:48;;;;;;;76.22;50.13;;;13.80;72.70;;;;;;4984127;28;94770;-52
2022/11/21 07:34:13;;;;;;;71.32;50.22;;;13.80;72.40;;;;;;4981461;28;92627;-56
2022/11/21 07:36:39;;;;;;;70.53;50.25;;;13.80;72.20;;;;;;4969854;28;90173;-56
2022/11/21 07:39:05;;;;;;;73.47;50.50;;;13.80;71.90;;;;;;4984303;28;90839;-53
2022/11/21 07:41:31;;;;;;;71.20;49.80;;;13.80;72.70;;;;;;4983171;28;89983;-50
2022/11/21 07:43:57;;;;;;;75.38;51.13;;;13.90;72.70;;;;;;4977483;27;91658;-52
2022/11/21 07:46:23;;;;;;;75.60;51.60;;;14.00;72.40;;;;;;4982917;28;90789;-50
2022/11/21 07:48:48;;;;;;;73.03;51.10;;;14.30;71.50;;;;;;4986045;28;89990;-53
2022/11/21 07:51:14;;;;;;;74.80;51.45;;;14.40;70.90;;;;;;4987697;28;91786;-55
2022/11/21 07:53:40;;;;;;;76.85;51.42;;;14.60;70.30;;;;;;4978051;28;98372;-53
2022/11/21 07:56:10;;;;;;;70.78;50.97;;;14.60;69.90;;;;;;4981589;28;90054;-50
2022/11/21 07:58:35;;;;;;;76.30;51.05;;;14.70;69.40;;;;;;4987483;28;90329;-57
2022/11/21 08:01:05;;;;;;;75.90;51.55;;;14.70;69.30;;;;;;4982159;28;89852;-51
2022/11/21 08:03:32;;;;;;;73.03;51.20;;;14.80;69.10;;;;;;4981571;28;90193;-53
2022/11/21 08:06:02;;;;;;;75.20;51.55;;;14.80;69.30;;;;;;4980783;28;89833;-54
2022/11/21 08:08:28;;;;;;;74.18;51.75;;;14.80;69.00;;;;;;4984487;28;90728;-54
2022/11/21 08:10:54;;;;;;;73.97;51.65;;;14.80;68.80;;;;;;4982745;28;92006;-52
2022/11/21 08:13:19;;;;;;;78.25;52.30;;;14.90;68.70;;;;;;4976476;28;91360;-55
2022/11/21 08:15:45;;;;;;;74.50;52.35;;;14.90;68.40;;;;;;4975666;28;90103;-57
2022/11/21 08:18:13;;;;;;;85.45;54.45;;;14.80;68.40;;;;;;4987520;28;90550;-52
2022/11/21 08:20:39;;;;;;;83.78;55.35;;;14.90;68.50;;;;;;4981359;28;89968;-54
2022/11/21 08:23:06;;;;;;;79.88;55.30;;;14.90;68.20;;;;;;4981728;28;92822;-52
2022/11/21 08:25:41;;;;;;;81.90;54.33;;;14.90;68.30;;;;;;4991124;28;90376;-54
2022/11/21 08:28:09;;;;;;;78.60;53.45;;;14.90;68.10;;;;;;4986931;28;89655;-51
2022/11/21 08:30:35;;;;;;;79.50;54.42;;;14.90;68.00;;;;;;4980062;28;89587;-53
2022/11/21 08:33:02;;;;;;;78.85;53.67;;;14.90;67.90;;;;;;4979926;28;91715;-53
2022/11/21 08:35:28;;;;;;;78.65;53.83;;;14.90;67.80;;;;;;4981207;28;90464;-53
2022/11/21 08:37:58;;;;;;;72.78;51.88;;;15.00;67.80;;;;;;4986687;28;89555;-53
2022/11/21 08:40:24;;;;;;;71.70;51.40;;;15.00;67.60;;;;;;4983997;28;89869;-54
2022/11/21 08:43:07;;;;;;;73.28;51.20;;;15.00;67.50;;;;;;4981153;28;89960;-54
2022/11/21 08:45:34;;;;;;;76.28;51.78;;;15.10;67.40;;;;;;4987347;28;90124;-53
2022/11/21 08:48:00;;;;;;;77.03;54.65;;;15.10;67.50;;;;;;4983923;28;90124;-53
2022/11/21 08:50:27;;;;;;;74.90;53.65;;;15.10;67.30;;;;;;4987392;28;93408;-53
2022/11/21 08:52:57;;;;;;;75.55;52.90;;;15.20;67.30;;;;;;4983937;28;89965;-54
2022/11/21 08:55:23;;;;;;;75.13;52.10;;;15.10;67.30;;;;;;4983835;27;90179;-59
2022/11/21 08:57:48;;;;;;;76.78;53.78;;;15.10;67.10;;;;;;4985597;28;90891;-57
2022/11/21 09:00:15;;;;;;;74.10;52.30;;;15.20;67.00;;;;;;4982590;28;89958;-57
2022/11/21 09:02:40;;;;;;;75.97;52.67;;;15.30;67.00;;;;;;4983538;28;90116;-59
2022/11/21 09:05:07;;;;;;;79.55;53.67;;;15.50;66.50;;;;;;4985694;28;91424;-58
2022/11/21 09:07:32;;;;;;;76.20;52.67;;;15.50;66.00;;;;;;4987250;28;89814;-57
2022/11/21 09:09:58;;;;;;;81.20;53.78;;;15.60;66.10;;;;;;4979590;28;91489;-55
2022/11/21 09:12:23;;;;;;;77.35;53.42;;;15.60;66.00;;;;;;4982635;28;90207;-55
2022/11/21 09:18:02;;;;;;;76.28;53.42;;;15.60;66.00;;;;;;4951318;28;92290;-54
2022/11/21 09:20:28;;;;;;;77.32;52.58;;;15.60;66.00;;;;;;4968391;28;90306;-57
2022/11/21 09:22:54;;;;;;;74.50;52.35;;;15.60;66.10;;;;;;4981291;28;93571;-58
2022/11/21 09:25:19;;;;;;;73.05;51.88;;;15.60;66.10;;;;;;4977338;27;94971;-57
2022/11/21 09:27:45;;;;;;;72.50;51.97;;;15.60;65.90;;;;;;4982171;28;90227;-58
2022/11/21 09:30:11;;;;;;;74.60;51.90;;;15.70;65.90;;;;;;4985545;28;90959;-56
2022/11/21 09:32:37;;;;;;;73.18;52.15;;;15.70;65.90;;;;;;4980363;28;91170;-53
2022/11/21 09:35:03;;;;;;;75.82;51.92;;;15.70;65.90;;;;;;4975869;28;89980;-57
2022/11/21 09:37:29;;;;;;;74.50;52.33;;;15.70;65.80;;;;;;4978573;28;91277;-58
2022/11/21 09:39:54;;;;;;;74.18;51.80;;;15.70;65.60;;;;;;4983201;28;90310;-57
2022/11/21 09:43:01;;;;;;;76.22;51.95;;;15.70;65.60;;;;;;4991456;28;93623;-56
2022/11/21 09:46:04;;;;;;;74.22;51.85;;;15.80;65.40;;;;;;5003425;28;91761;-55
2022/11/21 09:48:38;;;;;;;76.28;52.22;;;15.80;65.50;;;;;;4984311;28;90435;-53
2022/11/21 09:51:10;;;;;;;72.70;51.47;;;15.80;65.30;;;;;;4982388;28;90609;-55
2022/11/21 09:53:44;;;;;;;74.05;52.28;;;15.80;65.40;;;;;;4977833;28;91095;-54
2022/11/21 09:56:14;;;;;;;72.53;51.75;;;15.80;65.30;;;;;;4975151;28;90347;-55
2022/11/21 09:59:02;;;;;;;74.43;52.25;;;15.80;65.70;;;;;;4973958;28;90275;-57
2022/11/21 10:01:28;;;;;;;74.13;51.45;;;15.70;66.40;;;;;;4988788;28;89969;-56
2022/11/21 10:03:55;;;;;;;76.13;52.47;;;15.80;66.40;;;;;;4984467;28;90483;-57
2022/11/21 10:06:25;;;;;;;73.55;51.30;;;15.70;66.30;;;;;;4977037;28;89767;-58
2022/11/21 10:08:54;;;;;;;73.65;51.80;;;15.70;66.70;;;;;;4971115;28;90637;-56
2022/11/21 10:12:35;;;;;;;74.13;52.05;;;15.70;66.80;;;;;;4975227;28;90843;-57
2022/11/21 10:14:51;;;;;;;73.40;51.50;;;15.80;66.80;;;;;;4978793;28;91490;-57
2022/11/21 10:17:49;;;;;;;72.28;51.58;;;15.80;66.80;;;;;;4987987;28;90203;-57
2022/11/21 10:20:26;;;;;;;73.38;51.53;;;15.80;66.70;;;;;;4982706;28;90119;-58
2022/11/21 10:23:13;;;;;;;74.00;51.90;;;15.80;66.60;;;;;;4975682;28;91154;-57
2022/11/21 10:25:45;;;;;;;75.63;51.75;;;15.80;66.60;;;;;;4973293;28;89866;-53
2022/11/21 10:28:26;;;;;;;78.05;52.55;;;15.90;66.90;;;;;;4970515;28;90360;-49
2022/11/21 10:30:54;;;;;;;72.78;51.58;;;15.90;66.80;;;;;;4964155;28;90752;-50
2022/11/21 10:33:35;;;;;;;75.13;51.97;;;15.90;67.00;;;;;;4978886;28;91126;-52
2022/11/21 10:36:11;;;;;;;75.10;51.78;;;16.00;66.40;;;;;;4975543;28;91494;-55
2022/11/21 10:38:39;;;;;;;85.38;53.15;;;16.10;65.90;;;;;;4986274;28;90001;-53
2022/11/21 10:41:20;;;;;;;89.00;53.63;;;16.10;65.50;;;;;;4980536;28;91529;-54
2022/11/21 10:46:54;;;;;;;88.47;54.33;;;16.00;66.30;;;;;;4968975;27;95257;-56
2022/11/21 10:49:20;;;;;;;89.00;55.30;;;16.00;66.30;;;;;;4980943;27;90105;-55
2022/11/21 10:52:08;;;;;;;96.43;55.13;;;16.00;66.20;;;;;;4988732;28;89831;-50
2022/11/21 10:55:14;;;;;;;83.80;54.08;;;15.90;66.20;;;;;;4980110;28;91333;-53
2022/11/21 10:57:48;;;;;;;84.95;54.55;;;15.90;66.40;;;;;;4989162;28;90026;-52
2022/11/21 11:00:22;;;;;;;83.72;53.35;;;15.70;66.90;;;;;;4992238;28;91398;-53
2022/11/21 11:02:57;;;;;;;85.35;54.25;;;15.60;67.30;;;;;;4981440;28;90103;-52
2022/11/21 11:05:27;;;;;;;82.43;53.78;;;15.50;67.40;;;;;;4981393;28;90336;-53
2022/11/21 11:08:00;;;;;;;84.80;54.22;;;15.40;67.60;;;;;;4983158;28;95511;-54
2022/11/21 11:10:29;;;;;;;85.82;53.50;;;15.40;67.60;;;;;;4978378;28;91493;-52
2022/11/21 11:15:53;;;;;;;80.78;53.13;;;15.40;67.60;;;;;;4994553;28;89820;-53
2022/11/21 11:18:22;;;;;;;79.57;53.60;;;15.30;67.60;;;;;;4983392;28;95734;-50
2022/11/21 11:20:47;;;;;;;79.32;53.28;;;15.30;67.60;;;;;;4977997;28;89760;-51
2022/11/21 11:23:19;;;;;;;82.00;53.72;;;15.30;67.60;;;;;;4986292;28;90718;-54
2022/11/21 11:25:53;;;;;;;79.95;53.50;;;15.30;67.70;;;;;;4987576;28;89103;-52
2022/11/21 11:28:19;;;;;;;80.88;53.33;;;15.30;67.70;;;;;;4988452;28;91357;-54
2022/11/21 11:30:46;;;;;;;79.70;52.65;;;15.30;67.80;;;;;;4984990;28;92134;-52
2022/11/21 11:33:36;;;;;;;79.90;53.22;;;15.30;67.70;;;;;;4987223;28;91245;-52
2022/11/21 11:36:34;;;;;;;80.10;52.78;;;15.20;67.80;;;;;;4994255;28;89918;-54
2022/11/21 11:39:09;;;;;;;77.60;52.10;;;15.20;67.70;;;;;;4972437;28;90242;-53
2022/11/21 11:47:41;;;;;;;81.18;52.50;;;15.20;67.70;;;;;;4988856;28;90967;-54
2022/11/21 11:50:45;;;;;;;77.57;52.53;;;15.20;67.60;;;;;;4975665;28;90353;-55
2022/11/21 11:53:36;;;;;;;80.45;52.53;;;15.20;67.70;;;;;;4974951;28;90606;-54
2022/11/21 11:56:14;;;;;;;75.90;52.15;;;15.20;67.60;;;;;;4980610;28;90276;-53
2022/11/21 11:59:08;;;;;;;77.35;51.83;;;15.20;67.60;;;;;;4980975;28;90409;-54
2022/11/21 12:01:39;;;;;;;76.88;52.35;;;15.10;67.60;;;;;;4980092;28;91533;-53
2022/11/21 12:04:23;;;;;;;74.20;52.40;;;15.10;67.70;;;;;;4983516;28;93197;-54
2022/11/21 12:07:05;;;;;;;78.45;52.70;;;15.10;67.60;;;;;;4987828;28;91818;-55
2022/11/21 12:09:39;;;;;;;78.30;52.00;;;15.10;67.60;;;;;;4984210;28;91928;-53
2022/11/21 12:12:20;;;;;;;73.68;51.92;;;15.10;67.80;;;;;;4997975;28;89870;-54
2022/11/21 12:18:19;;;;;;;77.20;53.05;;;15.10;67.80;;;;;;4980736;28;90600;-54
2022/11/21 12:21:06;;;;;;;77.05;52.05;;;15.20;68.40;;;;;;4982637;28;95262;-54
2022/11/21 12:23:48;;;;;;;81.15;53.22;;;15.40;68.20;;;;;;4985174;28;90319;-51
2022/11/21 12:26:32;;;;;;;79.78;52.47;;;15.60;67.90;;;;;;4984785;28;90276;-53
2022/11/21 12:29:25;;;;;;;77.40;52.53;;;15.60;67.70;;;;;;4974697;28;90766;-51
2022/11/21 12:32:06;;;;;;;78.95;53.40;;;15.70;67.60;;;;;;4976038;28;90587;-51
2022/11/21 12:35:14;;;;;;;79.85;53.83;;;15.80;67.80;;;;;;4975446;28;90888;-57
2022/11/21 12:37:58;;;;;;;79.05;53.33;;;15.90;67.50;;;;;;4984078;28;90722;-51
2022/11/21 12:40:35;;;;;;;80.22;53.17;;;15.80;67.60;;;;;;4975951;28;91362;-56
2022/11/21 12:43:19;;;;;;;82.15;52.25;;;15.90;67.70;;;;;;4988710;28;89935;-55
2022/11/21 12:45:44;;;;;;;81.75;53.25;;;16.00;67.70;;;;;;4976561;28;90441;-53
2022/11/21 12:57:01;;;;;;;83.45;52.60;;;16.00;67.80;;;;;;4983122;28;92107;-55
2022/11/21 12:59:32;;;;;;;81.43;52.38;;;16.10;67.80;;;;;;4981682;28;95968;-54
2022/11/21 13:02:05;;;;;;;76.73;52.27;;;16.10;67.70;;;;;;4975684;28;91549;-56
2022/11/21 13:04:37;;;;;;;83.07;53.40;;;16.20;67.80;;;;;;4982473;28;90710;-50
2022/11/21 13:07:03;;;;;;;;;;;16.20;67.40;;;;;;4990832;28;90972;-55
2022/11/21 13:09:36;;;;;;;77.35;52.20;;;16.50;67.50;;;;;;4979092;28;90366;-56
2022/11/21 13:12:04;;;;;;;81.35;52.90;;;16.70;66.90;;;;;;4979624;28;91851;-57